<?xml version="1.0" encoding="UTF-8" standalone="no" ?>
<gpx xmlns="http://www.topografix.com/GPX/1/1" xmlns:xsi="http://www.w3.org/2001/XMLSchema-instance" xsi:schemaLocation="http://www.topografix.com/GPX/1/1 http://www.topografix.com/GPX/1/1/gpx.xsd" version="1.1" creator="VisuGPX - https://www.visugpx.com">
  <metadata>
    <name>Beaufort sur Gervanne</name>
    <desc><![CDATA[Bibliothèque Ripatons. départ de Beaufort par le GR9.Coste Belle Raffignac, Col de Véraut, Tour de Merly, Eygluy, Les Lyonnais]]></desc>
  </metadata>
  <trk>
    <name><![CDATA[Beaufort sur Gervanne]]></name>
    <trkseg>
      <trkpt lat="44.77908" lon="5.14283">
        <ele>374</ele>
        <time>2015-11-07T08:47:02+01:00</time>
      </trkpt>
      <trkpt lat="44.77868" lon="5.14285">
        <ele>373</ele>
        <time>2015-11-07T08:47:07+01:00</time>
      </trkpt>
      <trkpt lat="44.77818" lon="5.14265">
        <ele>374</ele>
        <time>2015-11-07T08:47:12+01:00</time>
      </trkpt>
      <trkpt lat="44.77796" lon="5.14257">
        <ele>374</ele>
        <time>2015-11-07T08:47:17+01:00</time>
      </trkpt>
      <trkpt lat="44.77766" lon="5.14266">
        <ele>372</ele>
        <time>2015-11-07T08:47:22+01:00</time>
      </trkpt>
      <trkpt lat="44.77765" lon="5.14254">
        <ele>373</ele>
        <time>2015-11-07T08:47:27+01:00</time>
      </trkpt>
      <trkpt lat="44.77719" lon="5.14281">
        <ele>370</ele>
        <time>2015-11-07T08:47:32+01:00</time>
      </trkpt>
      <trkpt lat="44.77705" lon="5.14284">
        <ele>369</ele>
        <time>2015-11-07T08:47:37+01:00</time>
      </trkpt>
      <trkpt lat="44.77701" lon="5.14278">
        <ele>369</ele>
        <time>2015-11-07T08:47:42+01:00</time>
      </trkpt>
      <trkpt lat="44.77671" lon="5.143">
        <ele>369</ele>
        <time>2015-11-07T08:47:47+01:00</time>
      </trkpt>
      <trkpt lat="44.77617" lon="5.14304">
        <ele>364</ele>
        <time>2015-11-07T08:47:52+01:00</time>
      </trkpt>
      <trkpt lat="44.77593" lon="5.14303">
        <ele>361</ele>
        <time>2015-11-07T08:47:57+01:00</time>
      </trkpt>
      <trkpt lat="44.77583" lon="5.14312">
        <ele>361</ele>
        <time>2015-11-07T08:48:02+01:00</time>
      </trkpt>
      <trkpt lat="44.77561" lon="5.14317">
        <ele>357</ele>
        <time>2015-11-07T08:48:07+01:00</time>
      </trkpt>
      <trkpt lat="44.77558" lon="5.14325">
        <ele>357</ele>
        <time>2015-11-07T08:48:12+01:00</time>
      </trkpt>
      <trkpt lat="44.77572" lon="5.14343">
        <ele>358</ele>
        <time>2015-11-07T08:48:17+01:00</time>
      </trkpt>
      <trkpt lat="44.77601" lon="5.1434">
        <ele>362</ele>
        <time>2015-11-07T08:48:22+01:00</time>
      </trkpt>
      <trkpt lat="44.77638" lon="5.14332">
        <ele>367</ele>
        <time>2015-11-07T08:48:27+01:00</time>
      </trkpt>
      <trkpt lat="44.77632" lon="5.14374">
        <ele>357</ele>
        <time>2015-11-07T08:48:32+01:00</time>
      </trkpt>
      <trkpt lat="44.77648" lon="5.14373">
        <ele>358</ele>
        <time>2015-11-07T08:48:37+01:00</time>
      </trkpt>
      <trkpt lat="44.77652" lon="5.14393">
        <ele>354</ele>
        <time>2015-11-07T08:48:42+01:00</time>
      </trkpt>
      <trkpt lat="44.77684" lon="5.14388">
        <ele>355</ele>
        <time>2015-11-07T08:48:47+01:00</time>
      </trkpt>
      <trkpt lat="44.77704" lon="5.14372">
        <ele>357</ele>
        <time>2015-11-07T08:48:52+01:00</time>
      </trkpt>
      <trkpt lat="44.77704" lon="5.14379">
        <ele>355</ele>
        <time>2015-11-07T08:48:57+01:00</time>
      </trkpt>
      <trkpt lat="44.77689" lon="5.144">
        <ele>351</ele>
        <time>2015-11-07T08:49:02+01:00</time>
      </trkpt>
      <trkpt lat="44.7768" lon="5.1441">
        <ele>349</ele>
        <time>2015-11-07T08:49:07+01:00</time>
      </trkpt>
      <trkpt lat="44.77674" lon="5.14432">
        <ele>345</ele>
        <time>2015-11-07T08:49:12+01:00</time>
      </trkpt>
      <trkpt lat="44.77673" lon="5.14447">
        <ele>342</ele>
        <time>2015-11-07T08:49:17+01:00</time>
      </trkpt>
      <trkpt lat="44.77659" lon="5.14505">
        <ele>330</ele>
        <time>2015-11-07T08:49:22+01:00</time>
      </trkpt>
      <trkpt lat="44.7764" lon="5.14551">
        <ele>333</ele>
        <time>2015-11-07T08:49:27+01:00</time>
      </trkpt>
      <trkpt lat="44.77639" lon="5.14578">
        <ele>335</ele>
        <time>2015-11-07T08:49:32+01:00</time>
      </trkpt>
      <trkpt lat="44.77603" lon="5.14595">
        <ele>336</ele>
        <time>2015-11-07T08:49:37+01:00</time>
      </trkpt>
      <trkpt lat="44.77585" lon="5.14634">
        <ele>340</ele>
        <time>2015-11-07T08:49:42+01:00</time>
      </trkpt>
      <trkpt lat="44.77577" lon="5.1465">
        <ele>343</ele>
        <time>2015-11-07T08:49:47+01:00</time>
      </trkpt>
      <trkpt lat="44.77539" lon="5.14704">
        <ele>351</ele>
        <time>2015-11-07T08:49:52+01:00</time>
      </trkpt>
      <trkpt lat="44.77501" lon="5.14753">
        <ele>357</ele>
        <time>2015-11-07T08:49:57+01:00</time>
      </trkpt>
      <trkpt lat="44.77473" lon="5.14809">
        <ele>367</ele>
        <time>2015-11-07T08:50:02+01:00</time>
      </trkpt>
      <trkpt lat="44.77462" lon="5.14846">
        <ele>371</ele>
        <time>2015-11-07T08:50:07+01:00</time>
      </trkpt>
      <trkpt lat="44.77456" lon="5.14884">
        <ele>374</ele>
        <time>2015-11-07T08:50:12+01:00</time>
      </trkpt>
      <trkpt lat="44.77458" lon="5.14941">
        <ele>377</ele>
        <time>2015-11-07T08:50:17+01:00</time>
      </trkpt>
      <trkpt lat="44.77451" lon="5.1498">
        <ele>380</ele>
        <time>2015-11-07T08:50:22+01:00</time>
      </trkpt>
      <trkpt lat="44.77428" lon="5.15043">
        <ele>384</ele>
        <time>2015-11-07T08:50:27+01:00</time>
      </trkpt>
      <trkpt lat="44.77367" lon="5.15136">
        <ele>392</ele>
        <time>2015-11-07T08:50:32+01:00</time>
      </trkpt>
      <trkpt lat="44.77327" lon="5.15147">
        <ele>395</ele>
        <time>2015-11-07T08:50:37+01:00</time>
      </trkpt>
      <trkpt lat="44.77305" lon="5.15162">
        <ele>396</ele>
        <time>2015-11-07T08:50:42+01:00</time>
      </trkpt>
      <trkpt lat="44.77299" lon="5.15239">
        <ele>404</ele>
        <time>2015-11-07T08:50:47+01:00</time>
      </trkpt>
      <trkpt lat="44.77291" lon="5.15254">
        <ele>406</ele>
        <time>2015-11-07T08:50:52+01:00</time>
      </trkpt>
      <trkpt lat="44.77266" lon="5.15234">
        <ele>405</ele>
        <time>2015-11-07T08:50:57+01:00</time>
      </trkpt>
      <trkpt lat="44.7723" lon="5.15173">
        <ele>400</ele>
        <time>2015-11-07T08:51:02+01:00</time>
      </trkpt>
      <trkpt lat="44.77212" lon="5.15153">
        <ele>400</ele>
        <time>2015-11-07T08:51:07+01:00</time>
      </trkpt>
      <trkpt lat="44.77197" lon="5.1514">
        <ele>401</ele>
        <time>2015-11-07T08:51:12+01:00</time>
      </trkpt>
      <trkpt lat="44.77215" lon="5.15092">
        <ele>397</ele>
        <time>2015-11-07T08:51:17+01:00</time>
      </trkpt>
      <trkpt lat="44.77189" lon="5.15095">
        <ele>399</ele>
        <time>2015-11-07T08:51:22+01:00</time>
      </trkpt>
      <trkpt lat="44.77152" lon="5.15083">
        <ele>402</ele>
        <time>2015-11-07T08:51:27+01:00</time>
      </trkpt>
      <trkpt lat="44.77106" lon="5.15044">
        <ele>402</ele>
        <time>2015-11-07T08:51:32+01:00</time>
      </trkpt>
      <trkpt lat="44.77071" lon="5.15076">
        <ele>405</ele>
        <time>2015-11-07T08:51:37+01:00</time>
      </trkpt>
      <trkpt lat="44.77044" lon="5.15103">
        <ele>405</ele>
        <time>2015-11-07T08:51:42+01:00</time>
      </trkpt>
      <trkpt lat="44.77017" lon="5.15149">
        <ele>406</ele>
        <time>2015-11-07T08:51:47+01:00</time>
      </trkpt>
      <trkpt lat="44.7696" lon="5.15253">
        <ele>410</ele>
        <time>2015-11-07T08:51:52+01:00</time>
      </trkpt>
      <trkpt lat="44.76908" lon="5.15318">
        <ele>415</ele>
        <time>2015-11-07T08:51:57+01:00</time>
      </trkpt>
      <trkpt lat="44.76824" lon="5.15419">
        <ele>412</ele>
        <time>2015-11-07T08:52:02+01:00</time>
      </trkpt>
      <trkpt lat="44.76805" lon="5.15457">
        <ele>414</ele>
        <time>2015-11-07T08:52:07+01:00</time>
      </trkpt>
      <trkpt lat="44.76788" lon="5.15463">
        <ele>414</ele>
        <time>2015-11-07T08:52:12+01:00</time>
      </trkpt>
      <trkpt lat="44.76733" lon="5.15449">
        <ele>416</ele>
        <time>2015-11-07T08:52:17+01:00</time>
      </trkpt>
      <trkpt lat="44.76704" lon="5.15436">
        <ele>420</ele>
        <time>2015-11-07T08:52:22+01:00</time>
      </trkpt>
      <trkpt lat="44.76689" lon="5.15452">
        <ele>425</ele>
        <time>2015-11-07T08:52:27+01:00</time>
      </trkpt>
      <trkpt lat="44.76662" lon="5.15525">
        <ele>435</ele>
        <time>2015-11-07T08:52:32+01:00</time>
      </trkpt>
      <trkpt lat="44.76665" lon="5.15601">
        <ele>440</ele>
        <time>2015-11-07T08:52:37+01:00</time>
      </trkpt>
      <trkpt lat="44.76681" lon="5.15641">
        <ele>443</ele>
        <time>2015-11-07T08:52:42+01:00</time>
      </trkpt>
      <trkpt lat="44.76682" lon="5.15649">
        <ele>444</ele>
        <time>2015-11-07T08:52:47+01:00</time>
      </trkpt>
      <trkpt lat="44.76702" lon="5.15676">
        <ele>446</ele>
        <time>2015-11-07T08:52:52+01:00</time>
      </trkpt>
      <trkpt lat="44.76711" lon="5.15705">
        <ele>450</ele>
        <time>2015-11-07T08:52:57+01:00</time>
      </trkpt>
      <trkpt lat="44.76713" lon="5.15719">
        <ele>452</ele>
        <time>2015-11-07T08:53:02+01:00</time>
      </trkpt>
      <trkpt lat="44.76683" lon="5.15756">
        <ele>456</ele>
        <time>2015-11-07T08:53:07+01:00</time>
      </trkpt>
      <trkpt lat="44.76676" lon="5.15769">
        <ele>456</ele>
        <time>2015-11-07T08:53:12+01:00</time>
      </trkpt>
      <trkpt lat="44.76653" lon="5.15826">
        <ele>460</ele>
        <time>2015-11-07T08:53:17+01:00</time>
      </trkpt>
      <trkpt lat="44.76649" lon="5.15839">
        <ele>461</ele>
        <time>2015-11-07T08:53:22+01:00</time>
      </trkpt>
      <trkpt lat="44.76649" lon="5.15848">
        <ele>461</ele>
        <time>2015-11-07T08:53:27+01:00</time>
      </trkpt>
      <trkpt lat="44.76617" lon="5.15939">
        <ele>469</ele>
        <time>2015-11-07T08:53:32+01:00</time>
      </trkpt>
      <trkpt lat="44.76624" lon="5.16016">
        <ele>474</ele>
        <time>2015-11-07T08:53:37+01:00</time>
      </trkpt>
      <trkpt lat="44.76682" lon="5.16086">
        <ele>479</ele>
        <time>2015-11-07T08:53:42+01:00</time>
      </trkpt>
      <trkpt lat="44.76659" lon="5.161">
        <ele>475</ele>
        <time>2015-11-07T08:53:47+01:00</time>
      </trkpt>
      <trkpt lat="44.76684" lon="5.16114">
        <ele>475</ele>
        <time>2015-11-07T08:53:52+01:00</time>
      </trkpt>
      <trkpt lat="44.76727" lon="5.1612">
        <ele>479</ele>
        <time>2015-11-07T08:53:57+01:00</time>
      </trkpt>
      <trkpt lat="44.76785" lon="5.16145">
        <ele>487</ele>
        <time>2015-11-07T08:54:02+01:00</time>
      </trkpt>
      <trkpt lat="44.76842" lon="5.16193">
        <ele>495</ele>
        <time>2015-11-07T08:54:07+01:00</time>
      </trkpt>
      <trkpt lat="44.76905" lon="5.16334">
        <ele>502</ele>
        <time>2015-11-07T08:54:12+01:00</time>
      </trkpt>
      <trkpt lat="44.76922" lon="5.16398">
        <ele>502</ele>
        <time>2015-11-07T08:54:17+01:00</time>
      </trkpt>
      <trkpt lat="44.7696" lon="5.16513">
        <ele>509</ele>
        <time>2015-11-07T08:54:22+01:00</time>
      </trkpt>
      <trkpt lat="44.76999" lon="5.16573">
        <ele>530</ele>
        <time>2015-11-07T08:54:27+01:00</time>
      </trkpt>
      <trkpt lat="44.77026" lon="5.16608">
        <ele>537</ele>
        <time>2015-11-07T08:54:32+01:00</time>
      </trkpt>
      <trkpt lat="44.77105" lon="5.16641">
        <ele>553</ele>
        <time>2015-11-07T08:54:37+01:00</time>
      </trkpt>
      <trkpt lat="44.77184" lon="5.16752">
        <ele>564</ele>
        <time>2015-11-07T08:54:42+01:00</time>
      </trkpt>
      <trkpt lat="44.77223" lon="5.16851">
        <ele>561</ele>
        <time>2015-11-07T08:54:47+01:00</time>
      </trkpt>
      <trkpt lat="44.77303" lon="5.16927">
        <ele>561</ele>
        <time>2015-11-07T08:54:52+01:00</time>
      </trkpt>
      <trkpt lat="44.77319" lon="5.16964">
        <ele>560</ele>
        <time>2015-11-07T08:54:57+01:00</time>
      </trkpt>
      <trkpt lat="44.77325" lon="5.16988">
        <ele>560</ele>
        <time>2015-11-07T08:55:02+01:00</time>
      </trkpt>
      <trkpt lat="44.77369" lon="5.17057">
        <ele>561</ele>
        <time>2015-11-07T08:55:07+01:00</time>
      </trkpt>
      <trkpt lat="44.77456" lon="5.1719">
        <ele>568</ele>
        <time>2015-11-07T08:55:12+01:00</time>
      </trkpt>
      <trkpt lat="44.77474" lon="5.17221">
        <ele>569</ele>
        <time>2015-11-07T08:55:17+01:00</time>
      </trkpt>
      <trkpt lat="44.77515" lon="5.17289">
        <ele>574</ele>
        <time>2015-11-07T08:55:22+01:00</time>
      </trkpt>
      <trkpt lat="44.77592" lon="5.17357">
        <ele>590</ele>
        <time>2015-11-07T08:55:27+01:00</time>
      </trkpt>
      <trkpt lat="44.77648" lon="5.17439">
        <ele>598</ele>
        <time>2015-11-07T08:55:32+01:00</time>
      </trkpt>
      <trkpt lat="44.77661" lon="5.17479">
        <ele>603</ele>
        <time>2015-11-07T08:55:37+01:00</time>
      </trkpt>
      <trkpt lat="44.77644" lon="5.17539">
        <ele>608</ele>
        <time>2015-11-07T08:55:42+01:00</time>
      </trkpt>
      <trkpt lat="44.77637" lon="5.17562">
        <ele>609</ele>
        <time>2015-11-07T08:55:47+01:00</time>
      </trkpt>
      <trkpt lat="44.77627" lon="5.17577">
        <ele>608</ele>
        <time>2015-11-07T08:55:52+01:00</time>
      </trkpt>
      <trkpt lat="44.77643" lon="5.17668">
        <ele>623</ele>
        <time>2015-11-07T08:55:57+01:00</time>
      </trkpt>
      <trkpt lat="44.77627" lon="5.1777">
        <ele>625</ele>
        <time>2015-11-07T08:56:02+01:00</time>
      </trkpt>
      <trkpt lat="44.77606" lon="5.17981">
        <ele>642</ele>
        <time>2015-11-07T08:56:07+01:00</time>
      </trkpt>
      <trkpt lat="44.77587" lon="5.18003">
        <ele>634</ele>
        <time>2015-11-07T08:56:12+01:00</time>
      </trkpt>
      <trkpt lat="44.77545" lon="5.18028">
        <ele>621</ele>
        <time>2015-11-07T08:56:17+01:00</time>
      </trkpt>
      <trkpt lat="44.77476" lon="5.18137">
        <ele>617</ele>
        <time>2015-11-07T08:56:22+01:00</time>
      </trkpt>
      <trkpt lat="44.77446" lon="5.18205">
        <ele>611</ele>
        <time>2015-11-07T08:56:27+01:00</time>
      </trkpt>
      <trkpt lat="44.77454" lon="5.1826">
        <ele>621</ele>
        <time>2015-11-07T08:56:32+01:00</time>
      </trkpt>
      <trkpt lat="44.77453" lon="5.1829">
        <ele>617</ele>
        <time>2015-11-07T08:56:37+01:00</time>
      </trkpt>
      <trkpt lat="44.77439" lon="5.18362">
        <ele>605</ele>
        <time>2015-11-07T08:56:42+01:00</time>
      </trkpt>
      <trkpt lat="44.77445" lon="5.18407">
        <ele>600</ele>
        <time>2015-11-07T08:56:47+01:00</time>
      </trkpt>
      <trkpt lat="44.77459" lon="5.18454">
        <ele>596</ele>
        <time>2015-11-07T08:56:52+01:00</time>
      </trkpt>
      <trkpt lat="44.77468" lon="5.18477">
        <ele>594</ele>
        <time>2015-11-07T08:56:57+01:00</time>
      </trkpt>
      <trkpt lat="44.77442" lon="5.18494">
        <ele>588</ele>
        <time>2015-11-07T08:57:02+01:00</time>
      </trkpt>
      <trkpt lat="44.77401" lon="5.18514">
        <ele>584</ele>
        <time>2015-11-07T08:57:07+01:00</time>
      </trkpt>
      <trkpt lat="44.77362" lon="5.18496">
        <ele>581</ele>
        <time>2015-11-07T08:57:12+01:00</time>
      </trkpt>
      <trkpt lat="44.77412" lon="5.18558">
        <ele>584</ele>
        <time>2015-11-07T08:57:17+01:00</time>
      </trkpt>
      <trkpt lat="44.77489" lon="5.18622">
        <ele>594</ele>
        <time>2015-11-07T08:57:22+01:00</time>
      </trkpt>
      <trkpt lat="44.77582" lon="5.18686">
        <ele>600</ele>
        <time>2015-11-07T08:57:27+01:00</time>
      </trkpt>
      <trkpt lat="44.77659" lon="5.1876">
        <ele>607</ele>
        <time>2015-11-07T08:57:32+01:00</time>
      </trkpt>
      <trkpt lat="44.7774" lon="5.1876">
        <ele>616</ele>
        <time>2015-11-07T08:57:37+01:00</time>
      </trkpt>
      <trkpt lat="44.77777" lon="5.1876">
        <ele>624</ele>
        <time>2015-11-07T08:57:42+01:00</time>
      </trkpt>
      <trkpt lat="44.77792" lon="5.18781">
        <ele>627</ele>
        <time>2015-11-07T08:57:47+01:00</time>
      </trkpt>
      <trkpt lat="44.77825" lon="5.18799">
        <ele>635</ele>
        <time>2015-11-07T08:57:52+01:00</time>
      </trkpt>
      <trkpt lat="44.77831" lon="5.18815">
        <ele>635</ele>
        <time>2015-11-07T08:57:57+01:00</time>
      </trkpt>
      <trkpt lat="44.77803" lon="5.18841">
        <ele>629</ele>
        <time>2015-11-07T08:58:02+01:00</time>
      </trkpt>
      <trkpt lat="44.77799" lon="5.18862">
        <ele>630</ele>
        <time>2015-11-07T08:58:07+01:00</time>
      </trkpt>
      <trkpt lat="44.77851" lon="5.18871">
        <ele>644</ele>
        <time>2015-11-07T08:58:12+01:00</time>
      </trkpt>
      <trkpt lat="44.77833" lon="5.18903">
        <ele>644</ele>
        <time>2015-11-07T08:58:17+01:00</time>
      </trkpt>
      <trkpt lat="44.77837" lon="5.18916">
        <ele>647</ele>
        <time>2015-11-07T08:58:22+01:00</time>
      </trkpt>
      <trkpt lat="44.77873" lon="5.18909">
        <ele>655</ele>
        <time>2015-11-07T08:58:27+01:00</time>
      </trkpt>
      <trkpt lat="44.77916" lon="5.18871">
        <ele>661</ele>
        <time>2015-11-07T08:58:32+01:00</time>
      </trkpt>
      <trkpt lat="44.77921" lon="5.18872">
        <ele>662</ele>
        <time>2015-11-07T08:58:37+01:00</time>
      </trkpt>
      <trkpt lat="44.77897" lon="5.18952">
        <ele>668</ele>
        <time>2015-11-07T08:58:42+01:00</time>
      </trkpt>
      <trkpt lat="44.77962" lon="5.18921">
        <ele>679</ele>
        <time>2015-11-07T08:58:47+01:00</time>
      </trkpt>
      <trkpt lat="44.77995" lon="5.18901">
        <ele>684</ele>
        <time>2015-11-07T08:58:52+01:00</time>
      </trkpt>
      <trkpt lat="44.77991" lon="5.18942">
        <ele>688</ele>
        <time>2015-11-07T08:58:57+01:00</time>
      </trkpt>
      <trkpt lat="44.77962" lon="5.19">
        <ele>691</ele>
        <time>2015-11-07T08:59:02+01:00</time>
      </trkpt>
      <trkpt lat="44.77921" lon="5.19051">
        <ele>694</ele>
        <time>2015-11-07T08:59:07+01:00</time>
      </trkpt>
      <trkpt lat="44.77903" lon="5.19079">
        <ele>695</ele>
        <time>2015-11-07T08:59:12+01:00</time>
      </trkpt>
      <trkpt lat="44.77907" lon="5.19115">
        <ele>699</ele>
        <time>2015-11-07T08:59:17+01:00</time>
      </trkpt>
      <trkpt lat="44.7794" lon="5.19158">
        <ele>710</ele>
        <time>2015-11-07T08:59:22+01:00</time>
      </trkpt>
      <trkpt lat="44.77966" lon="5.19296">
        <ele>708</ele>
        <time>2015-11-07T08:59:27+01:00</time>
      </trkpt>
      <trkpt lat="44.77982" lon="5.19375">
        <ele>709</ele>
        <time>2015-11-07T08:59:32+01:00</time>
      </trkpt>
      <trkpt lat="44.78001" lon="5.19409">
        <ele>713</ele>
        <time>2015-11-07T08:59:37+01:00</time>
      </trkpt>
      <trkpt lat="44.78016" lon="5.19433">
        <ele>716</ele>
        <time>2015-11-07T08:59:42+01:00</time>
      </trkpt>
      <trkpt lat="44.7816" lon="5.19599">
        <ele>743</ele>
        <time>2015-11-07T08:59:47+01:00</time>
      </trkpt>
      <trkpt lat="44.78248" lon="5.19674">
        <ele>765</ele>
        <time>2015-11-07T08:59:52+01:00</time>
      </trkpt>
      <trkpt lat="44.78274" lon="5.19722">
        <ele>772</ele>
        <time>2015-11-07T08:59:57+01:00</time>
      </trkpt>
      <trkpt lat="44.78365" lon="5.19855">
        <ele>763</ele>
        <time>2015-11-07T09:00:02+01:00</time>
      </trkpt>
      <trkpt lat="44.78394" lon="5.19958">
        <ele>750</ele>
        <time>2015-11-07T09:00:07+01:00</time>
      </trkpt>
      <trkpt lat="44.78424" lon="5.20032">
        <ele>738</ele>
        <time>2015-11-07T09:00:12+01:00</time>
      </trkpt>
      <trkpt lat="44.78457" lon="5.20101">
        <ele>725</ele>
        <time>2015-11-07T09:00:17+01:00</time>
      </trkpt>
      <trkpt lat="44.78461" lon="5.20004">
        <ele>711</ele>
        <time>2015-11-07T09:00:22+01:00</time>
      </trkpt>
      <trkpt lat="44.78486" lon="5.20057">
        <ele>702</ele>
        <time>2015-11-07T09:00:27+01:00</time>
      </trkpt>
      <trkpt lat="44.78513" lon="5.20104">
        <ele>692</ele>
        <time>2015-11-07T09:00:32+01:00</time>
      </trkpt>
      <trkpt lat="44.78536" lon="5.20173">
        <ele>687</ele>
        <time>2015-11-07T09:00:37+01:00</time>
      </trkpt>
      <trkpt lat="44.7854" lon="5.20214">
        <ele>689</ele>
        <time>2015-11-07T09:00:42+01:00</time>
      </trkpt>
      <trkpt lat="44.78569" lon="5.20212">
        <ele>679</ele>
        <time>2015-11-07T09:00:47+01:00</time>
      </trkpt>
      <trkpt lat="44.78594" lon="5.20249">
        <ele>677</ele>
        <time>2015-11-07T09:00:52+01:00</time>
      </trkpt>
      <trkpt lat="44.78636" lon="5.20324">
        <ele>686</ele>
        <time>2015-11-07T09:00:57+01:00</time>
      </trkpt>
      <trkpt lat="44.78644" lon="5.20438">
        <ele>701</ele>
        <time>2015-11-07T09:01:02+01:00</time>
      </trkpt>
      <trkpt lat="44.78598" lon="5.20511">
        <ele>712</ele>
        <time>2015-11-07T09:01:07+01:00</time>
      </trkpt>
      <trkpt lat="44.78615" lon="5.20543">
        <ele>712</ele>
        <time>2015-11-07T09:01:12+01:00</time>
      </trkpt>
      <trkpt lat="44.78657" lon="5.20511">
        <ele>709</ele>
        <time>2015-11-07T09:01:17+01:00</time>
      </trkpt>
      <trkpt lat="44.78698" lon="5.20449">
        <ele>707</ele>
        <time>2015-11-07T09:01:22+01:00</time>
      </trkpt>
      <trkpt lat="44.78753" lon="5.20393">
        <ele>712</ele>
        <time>2015-11-07T09:01:27+01:00</time>
      </trkpt>
      <trkpt lat="44.7874" lon="5.20351">
        <ele>701</ele>
        <time>2015-11-07T09:01:32+01:00</time>
      </trkpt>
      <trkpt lat="44.78778" lon="5.20285">
        <ele>707</ele>
        <time>2015-11-07T09:01:37+01:00</time>
      </trkpt>
      <trkpt lat="44.78775" lon="5.20219">
        <ele>699</ele>
        <time>2015-11-07T09:01:42+01:00</time>
      </trkpt>
      <trkpt lat="44.78816" lon="5.20144">
        <ele>706</ele>
        <time>2015-11-07T09:01:47+01:00</time>
      </trkpt>
      <trkpt lat="44.78812" lon="5.20073">
        <ele>701</ele>
        <time>2015-11-07T09:01:52+01:00</time>
      </trkpt>
      <trkpt lat="44.7884" lon="5.1997">
        <ele>699</ele>
        <time>2015-11-07T09:01:57+01:00</time>
      </trkpt>
      <trkpt lat="44.78888" lon="5.19903">
        <ele>695</ele>
        <time>2015-11-07T09:02:02+01:00</time>
      </trkpt>
      <trkpt lat="44.78909" lon="5.1987">
        <ele>689</ele>
        <time>2015-11-07T09:02:07+01:00</time>
      </trkpt>
      <trkpt lat="44.78991" lon="5.19899">
        <ele>697</ele>
        <time>2015-11-07T09:02:12+01:00</time>
      </trkpt>
      <trkpt lat="44.79096" lon="5.19916">
        <ele>701</ele>
        <time>2015-11-07T09:02:17+01:00</time>
      </trkpt>
      <trkpt lat="44.79179" lon="5.19931">
        <ele>707</ele>
        <time>2015-11-07T09:02:22+01:00</time>
      </trkpt>
      <trkpt lat="44.79293" lon="5.19924">
        <ele>702</ele>
        <time>2015-11-07T09:02:27+01:00</time>
      </trkpt>
      <trkpt lat="44.79298" lon="5.19886">
        <ele>700</ele>
        <time>2015-11-07T09:02:32+01:00</time>
      </trkpt>
      <trkpt lat="44.79307" lon="5.19886">
        <ele>701</ele>
        <time>2015-11-07T09:02:37+01:00</time>
      </trkpt>
      <trkpt lat="44.79338" lon="5.19865">
        <ele>703</ele>
        <time>2015-11-07T09:02:42+01:00</time>
      </trkpt>
      <trkpt lat="44.79446" lon="5.19795">
        <ele>698</ele>
        <time>2015-11-07T09:02:47+01:00</time>
      </trkpt>
      <trkpt lat="44.79449" lon="5.1974">
        <ele>710</ele>
        <time>2015-11-07T09:02:52+01:00</time>
      </trkpt>
      <trkpt lat="44.79469" lon="5.19679">
        <ele>721</ele>
        <time>2015-11-07T09:02:57+01:00</time>
      </trkpt>
      <trkpt lat="44.79561" lon="5.19581">
        <ele>729</ele>
        <time>2015-11-07T09:03:02+01:00</time>
      </trkpt>
      <trkpt lat="44.79649" lon="5.19491">
        <ele>738</ele>
        <time>2015-11-07T09:03:07+01:00</time>
      </trkpt>
      <trkpt lat="44.798" lon="5.19356">
        <ele>737</ele>
        <time>2015-11-07T09:03:12+01:00</time>
      </trkpt>
      <trkpt lat="44.79817" lon="5.19216">
        <ele>743</ele>
        <time>2015-11-07T09:03:17+01:00</time>
      </trkpt>
      <trkpt lat="44.79789" lon="5.18993">
        <ele>759</ele>
        <time>2015-11-07T09:03:22+01:00</time>
      </trkpt>
      <trkpt lat="44.79801" lon="5.18873">
        <ele>754</ele>
        <time>2015-11-07T09:03:27+01:00</time>
      </trkpt>
      <trkpt lat="44.79791" lon="5.18791">
        <ele>761</ele>
        <time>2015-11-07T09:03:32+01:00</time>
      </trkpt>
      <trkpt lat="44.79751" lon="5.1857">
        <ele>772</ele>
        <time>2015-11-07T09:03:37+01:00</time>
      </trkpt>
      <trkpt lat="44.79728" lon="5.18461">
        <ele>782</ele>
        <time>2015-11-07T09:03:42+01:00</time>
      </trkpt>
      <trkpt lat="44.79727" lon="5.18401">
        <ele>781</ele>
        <time>2015-11-07T09:03:47+01:00</time>
      </trkpt>
      <trkpt lat="44.79732" lon="5.18304">
        <ele>772</ele>
        <time>2015-11-07T09:03:52+01:00</time>
      </trkpt>
      <trkpt lat="44.79726" lon="5.18245">
        <ele>770</ele>
        <time>2015-11-07T09:03:57+01:00</time>
      </trkpt>
      <trkpt lat="44.79668" lon="5.18091">
        <ele>764</ele>
        <time>2015-11-07T09:04:02+01:00</time>
      </trkpt>
      <trkpt lat="44.79643" lon="5.17953">
        <ele>750</ele>
        <time>2015-11-07T09:04:07+01:00</time>
      </trkpt>
      <trkpt lat="44.79641" lon="5.17898">
        <ele>745</ele>
        <time>2015-11-07T09:04:12+01:00</time>
      </trkpt>
      <trkpt lat="44.79657" lon="5.17899">
        <ele>743</ele>
        <time>2015-11-07T09:04:17+01:00</time>
      </trkpt>
      <trkpt lat="44.79728" lon="5.17913">
        <ele>730</ele>
        <time>2015-11-07T09:04:22+01:00</time>
      </trkpt>
      <trkpt lat="44.79731" lon="5.17878">
        <ele>727</ele>
        <time>2015-11-07T09:04:27+01:00</time>
      </trkpt>
      <trkpt lat="44.79714" lon="5.17784">
        <ele>722</ele>
        <time>2015-11-07T09:04:32+01:00</time>
      </trkpt>
      <trkpt lat="44.79629" lon="5.1755">
        <ele>702</ele>
        <time>2015-11-07T09:04:37+01:00</time>
      </trkpt>
      <trkpt lat="44.79577" lon="5.1746">
        <ele>693</ele>
        <time>2015-11-07T09:04:42+01:00</time>
      </trkpt>
      <trkpt lat="44.79501" lon="5.17413">
        <ele>677</ele>
        <time>2015-11-07T09:04:47+01:00</time>
      </trkpt>
      <trkpt lat="44.79404" lon="5.17438">
        <ele>669</ele>
        <time>2015-11-07T09:04:52+01:00</time>
      </trkpt>
      <trkpt lat="44.79357" lon="5.17428">
        <ele>659</ele>
        <time>2015-11-07T09:04:57+01:00</time>
      </trkpt>
      <trkpt lat="44.79319" lon="5.17426">
        <ele>650</ele>
        <time>2015-11-07T09:05:02+01:00</time>
      </trkpt>
      <trkpt lat="44.79317" lon="5.17611">
        <ele>654</ele>
        <time>2015-11-07T09:05:07+01:00</time>
      </trkpt>
      <trkpt lat="44.79323" lon="5.17652">
        <ele>659</ele>
        <time>2015-11-07T09:05:12+01:00</time>
      </trkpt>
      <trkpt lat="44.79312" lon="5.17707">
        <ele>656</ele>
        <time>2015-11-07T09:05:17+01:00</time>
      </trkpt>
      <trkpt lat="44.79307" lon="5.1774">
        <ele>656</ele>
        <time>2015-11-07T09:05:22+01:00</time>
      </trkpt>
      <trkpt lat="44.79307" lon="5.17769">
        <ele>658</ele>
        <time>2015-11-07T09:05:27+01:00</time>
      </trkpt>
      <trkpt lat="44.79295" lon="5.1782">
        <ele>653</ele>
        <time>2015-11-07T09:05:32+01:00</time>
      </trkpt>
      <trkpt lat="44.79295" lon="5.17869">
        <ele>653</ele>
        <time>2015-11-07T09:05:37+01:00</time>
      </trkpt>
      <trkpt lat="44.79282" lon="5.17977">
        <ele>643</ele>
        <time>2015-11-07T09:05:42+01:00</time>
      </trkpt>
      <trkpt lat="44.79295" lon="5.18043">
        <ele>652</ele>
        <time>2015-11-07T09:05:47+01:00</time>
      </trkpt>
      <trkpt lat="44.79287" lon="5.18068">
        <ele>646</ele>
        <time>2015-11-07T09:05:52+01:00</time>
      </trkpt>
      <trkpt lat="44.79299" lon="5.18156">
        <ele>659</ele>
        <time>2015-11-07T09:05:57+01:00</time>
      </trkpt>
      <trkpt lat="44.79289" lon="5.18198">
        <ele>655</ele>
        <time>2015-11-07T09:06:02+01:00</time>
      </trkpt>
      <trkpt lat="44.79281" lon="5.18296">
        <ele>657</ele>
        <time>2015-11-07T09:06:07+01:00</time>
      </trkpt>
      <trkpt lat="44.79269" lon="5.18408">
        <ele>651</ele>
        <time>2015-11-07T09:06:12+01:00</time>
      </trkpt>
      <trkpt lat="44.79273" lon="5.18447">
        <ele>659</ele>
        <time>2015-11-07T09:06:17+01:00</time>
      </trkpt>
      <trkpt lat="44.79248" lon="5.1849">
        <ele>646</ele>
        <time>2015-11-07T09:06:22+01:00</time>
      </trkpt>
      <trkpt lat="44.79214" lon="5.186">
        <ele>645</ele>
        <time>2015-11-07T09:06:27+01:00</time>
      </trkpt>
      <trkpt lat="44.79207" lon="5.18631">
        <ele>647</ele>
        <time>2015-11-07T09:06:32+01:00</time>
      </trkpt>
      <trkpt lat="44.79163" lon="5.18688">
        <ele>630</ele>
        <time>2015-11-07T09:06:37+01:00</time>
      </trkpt>
      <trkpt lat="44.79129" lon="5.18784">
        <ele>625</ele>
        <time>2015-11-07T09:06:42+01:00</time>
      </trkpt>
      <trkpt lat="44.79128" lon="5.18841">
        <ele>633</ele>
        <time>2015-11-07T09:06:47+01:00</time>
      </trkpt>
      <trkpt lat="44.79095" lon="5.18902">
        <ele>624</ele>
        <time>2015-11-07T09:06:52+01:00</time>
      </trkpt>
      <trkpt lat="44.79052" lon="5.19003">
        <ele>620</ele>
        <time>2015-11-07T09:06:57+01:00</time>
      </trkpt>
      <trkpt lat="44.79044" lon="5.19029">
        <ele>618</ele>
        <time>2015-11-07T09:07:02+01:00</time>
      </trkpt>
      <trkpt lat="44.79052" lon="5.19052">
        <ele>627</ele>
        <time>2015-11-07T09:07:07+01:00</time>
      </trkpt>
      <trkpt lat="44.79047" lon="5.19103">
        <ele>629</ele>
        <time>2015-11-07T09:07:12+01:00</time>
      </trkpt>
      <trkpt lat="44.79054" lon="5.19161">
        <ele>634</ele>
        <time>2015-11-07T09:07:17+01:00</time>
      </trkpt>
      <trkpt lat="44.79057" lon="5.19227">
        <ele>637</ele>
        <time>2015-11-07T09:07:22+01:00</time>
      </trkpt>
      <trkpt lat="44.79054" lon="5.19262">
        <ele>636</ele>
        <time>2015-11-07T09:07:27+01:00</time>
      </trkpt>
      <trkpt lat="44.79042" lon="5.19287">
        <ele>631</ele>
        <time>2015-11-07T09:07:32+01:00</time>
      </trkpt>
      <trkpt lat="44.79028" lon="5.19372">
        <ele>628</ele>
        <time>2015-11-07T09:07:37+01:00</time>
      </trkpt>
      <trkpt lat="44.7901" lon="5.19441">
        <ele>624</ele>
        <time>2015-11-07T09:07:42+01:00</time>
      </trkpt>
      <trkpt lat="44.7898" lon="5.19487">
        <ele>617</ele>
        <time>2015-11-07T09:07:47+01:00</time>
      </trkpt>
      <trkpt lat="44.78973" lon="5.19502">
        <ele>616</ele>
        <time>2015-11-07T09:07:52+01:00</time>
      </trkpt>
      <trkpt lat="44.78954" lon="5.19503">
        <ele>613</ele>
        <time>2015-11-07T09:07:57+01:00</time>
      </trkpt>
      <trkpt lat="44.78941" lon="5.19569">
        <ele>615</ele>
        <time>2015-11-07T09:08:02+01:00</time>
      </trkpt>
      <trkpt lat="44.78907" lon="5.19548">
        <ele>609</ele>
        <time>2015-11-07T09:08:07+01:00</time>
      </trkpt>
      <trkpt lat="44.7889" lon="5.19518">
        <ele>603</ele>
        <time>2015-11-07T09:08:12+01:00</time>
      </trkpt>
      <trkpt lat="44.7888" lon="5.19498">
        <ele>600</ele>
        <time>2015-11-07T09:08:17+01:00</time>
      </trkpt>
      <trkpt lat="44.7886" lon="5.19482">
        <ele>595</ele>
        <time>2015-11-07T09:08:22+01:00</time>
      </trkpt>
      <trkpt lat="44.78813" lon="5.19411">
        <ele>588</ele>
        <time>2015-11-07T09:08:27+01:00</time>
      </trkpt>
      <trkpt lat="44.78802" lon="5.19389">
        <ele>589</ele>
        <time>2015-11-07T09:08:32+01:00</time>
      </trkpt>
      <trkpt lat="44.78803" lon="5.19337">
        <ele>587</ele>
        <time>2015-11-07T09:08:37+01:00</time>
      </trkpt>
      <trkpt lat="44.78794" lon="5.19253">
        <ele>584</ele>
        <time>2015-11-07T09:08:42+01:00</time>
      </trkpt>
      <trkpt lat="44.78779" lon="5.19153">
        <ele>584</ele>
        <time>2015-11-07T09:08:47+01:00</time>
      </trkpt>
      <trkpt lat="44.78794" lon="5.19102">
        <ele>582</ele>
        <time>2015-11-07T09:08:52+01:00</time>
      </trkpt>
      <trkpt lat="44.78802" lon="5.19043">
        <ele>584</ele>
        <time>2015-11-07T09:08:57+01:00</time>
      </trkpt>
      <trkpt lat="44.78827" lon="5.19015">
        <ele>581</ele>
        <time>2015-11-07T09:09:02+01:00</time>
      </trkpt>
      <trkpt lat="44.78882" lon="5.18877">
        <ele>577</ele>
        <time>2015-11-07T09:09:07+01:00</time>
      </trkpt>
      <trkpt lat="44.78888" lon="5.18844">
        <ele>576</ele>
        <time>2015-11-07T09:09:12+01:00</time>
      </trkpt>
      <trkpt lat="44.78915" lon="5.18789">
        <ele>571</ele>
        <time>2015-11-07T09:09:17+01:00</time>
      </trkpt>
      <trkpt lat="44.78923" lon="5.18697">
        <ele>571</ele>
        <time>2015-11-07T09:09:22+01:00</time>
      </trkpt>
      <trkpt lat="44.78911" lon="5.18638">
        <ele>576</ele>
        <time>2015-11-07T09:09:27+01:00</time>
      </trkpt>
      <trkpt lat="44.78912" lon="5.18615">
        <ele>577</ele>
        <time>2015-11-07T09:09:32+01:00</time>
      </trkpt>
      <trkpt lat="44.78925" lon="5.18575">
        <ele>575</ele>
        <time>2015-11-07T09:09:37+01:00</time>
      </trkpt>
      <trkpt lat="44.7894" lon="5.1845">
        <ele>580</ele>
        <time>2015-11-07T09:09:42+01:00</time>
      </trkpt>
      <trkpt lat="44.78968" lon="5.18275">
        <ele>574</ele>
        <time>2015-11-07T09:09:47+01:00</time>
      </trkpt>
      <trkpt lat="44.78964" lon="5.18159">
        <ele>578</ele>
        <time>2015-11-07T09:09:52+01:00</time>
      </trkpt>
      <trkpt lat="44.7895" lon="5.18075">
        <ele>577</ele>
        <time>2015-11-07T09:09:57+01:00</time>
      </trkpt>
      <trkpt lat="44.7894" lon="5.1806">
        <ele>580</ele>
        <time>2015-11-07T09:10:02+01:00</time>
      </trkpt>
      <trkpt lat="44.78928" lon="5.18018">
        <ele>580</ele>
        <time>2015-11-07T09:10:07+01:00</time>
      </trkpt>
      <trkpt lat="44.78893" lon="5.17882">
        <ele>581</ele>
        <time>2015-11-07T09:10:12+01:00</time>
      </trkpt>
      <trkpt lat="44.78883" lon="5.17841">
        <ele>579</ele>
        <time>2015-11-07T09:10:17+01:00</time>
      </trkpt>
      <trkpt lat="44.78797" lon="5.17633">
        <ele>576</ele>
        <time>2015-11-07T09:10:22+01:00</time>
      </trkpt>
      <trkpt lat="44.78724" lon="5.17483">
        <ele>571</ele>
        <time>2015-11-07T09:10:27+01:00</time>
      </trkpt>
      <trkpt lat="44.78688" lon="5.17438">
        <ele>581</ele>
        <time>2015-11-07T09:10:32+01:00</time>
      </trkpt>
      <trkpt lat="44.78659" lon="5.17381">
        <ele>583</ele>
        <time>2015-11-07T09:10:37+01:00</time>
      </trkpt>
      <trkpt lat="44.78609" lon="5.17239">
        <ele>578</ele>
        <time>2015-11-07T09:10:42+01:00</time>
      </trkpt>
      <trkpt lat="44.78596" lon="5.17167">
        <ele>578</ele>
        <time>2015-11-07T09:10:47+01:00</time>
      </trkpt>
      <trkpt lat="44.78596" lon="5.17098">
        <ele>575</ele>
        <time>2015-11-07T09:10:52+01:00</time>
      </trkpt>
      <trkpt lat="44.78611" lon="5.17008">
        <ele>570</ele>
        <time>2015-11-07T09:10:57+01:00</time>
      </trkpt>
      <trkpt lat="44.78595" lon="5.16971">
        <ele>571</ele>
        <time>2015-11-07T09:11:02+01:00</time>
      </trkpt>
      <trkpt lat="44.78582" lon="5.16909">
        <ele>566</ele>
        <time>2015-11-07T09:11:07+01:00</time>
      </trkpt>
      <trkpt lat="44.78581" lon="5.16883">
        <ele>564</ele>
        <time>2015-11-07T09:11:12+01:00</time>
      </trkpt>
      <trkpt lat="44.78581" lon="5.16843">
        <ele>561</ele>
        <time>2015-11-07T09:11:17+01:00</time>
      </trkpt>
      <trkpt lat="44.78516" lon="5.16759">
        <ele>547</ele>
        <time>2015-11-07T09:11:22+01:00</time>
      </trkpt>
      <trkpt lat="44.78467" lon="5.16764">
        <ele>542</ele>
        <time>2015-11-07T09:11:27+01:00</time>
      </trkpt>
      <trkpt lat="44.7845" lon="5.16767">
        <ele>540</ele>
        <time>2015-11-07T09:11:32+01:00</time>
      </trkpt>
      <trkpt lat="44.78426" lon="5.16753">
        <ele>536</ele>
        <time>2015-11-07T09:11:37+01:00</time>
      </trkpt>
      <trkpt lat="44.7843" lon="5.16717">
        <ele>534</ele>
        <time>2015-11-07T09:11:42+01:00</time>
      </trkpt>
      <trkpt lat="44.78446" lon="5.16666">
        <ele>532</ele>
        <time>2015-11-07T09:11:47+01:00</time>
      </trkpt>
      <trkpt lat="44.78439" lon="5.16639">
        <ele>530</ele>
        <time>2015-11-07T09:11:52+01:00</time>
      </trkpt>
      <trkpt lat="44.78425" lon="5.16607">
        <ele>527</ele>
        <time>2015-11-07T09:11:57+01:00</time>
      </trkpt>
      <trkpt lat="44.78408" lon="5.16598">
        <ele>524</ele>
        <time>2015-11-07T09:12:02+01:00</time>
      </trkpt>
      <trkpt lat="44.78386" lon="5.16585">
        <ele>520</ele>
        <time>2015-11-07T09:12:07+01:00</time>
      </trkpt>
      <trkpt lat="44.78368" lon="5.16589">
        <ele>517</ele>
        <time>2015-11-07T09:12:12+01:00</time>
      </trkpt>
      <trkpt lat="44.7831" lon="5.16578">
        <ele>508</ele>
        <time>2015-11-07T09:12:17+01:00</time>
      </trkpt>
      <trkpt lat="44.78234" lon="5.16552">
        <ele>497</ele>
        <time>2015-11-07T09:12:22+01:00</time>
      </trkpt>
      <trkpt lat="44.78167" lon="5.16511">
        <ele>490</ele>
        <time>2015-11-07T09:12:27+01:00</time>
      </trkpt>
      <trkpt lat="44.78107" lon="5.16464">
        <ele>488</ele>
        <time>2015-11-07T09:12:32+01:00</time>
      </trkpt>
      <trkpt lat="44.7805" lon="5.16423">
        <ele>488</ele>
        <time>2015-11-07T09:12:37+01:00</time>
      </trkpt>
      <trkpt lat="44.78025" lon="5.16387">
        <ele>487</ele>
        <time>2015-11-07T09:12:42+01:00</time>
      </trkpt>
      <trkpt lat="44.77946" lon="5.1625">
        <ele>479</ele>
        <time>2015-11-07T09:12:47+01:00</time>
      </trkpt>
      <trkpt lat="44.77935" lon="5.16239">
        <ele>480</ele>
        <time>2015-11-07T09:12:52+01:00</time>
      </trkpt>
      <trkpt lat="44.77919" lon="5.16215">
        <ele>481</ele>
        <time>2015-11-07T09:12:57+01:00</time>
      </trkpt>
      <trkpt lat="44.77919" lon="5.16186">
        <ele>478</ele>
        <time>2015-11-07T09:13:02+01:00</time>
      </trkpt>
      <trkpt lat="44.77915" lon="5.1616">
        <ele>476</ele>
        <time>2015-11-07T09:13:07+01:00</time>
      </trkpt>
      <trkpt lat="44.77905" lon="5.16137">
        <ele>475</ele>
        <time>2015-11-07T09:13:12+01:00</time>
      </trkpt>
      <trkpt lat="44.77887" lon="5.16105">
        <ele>475</ele>
        <time>2015-11-07T09:13:17+01:00</time>
      </trkpt>
      <trkpt lat="44.77849" lon="5.15989">
        <ele>476</ele>
        <time>2015-11-07T09:13:22+01:00</time>
      </trkpt>
      <trkpt lat="44.77787" lon="5.1586">
        <ele>465</ele>
        <time>2015-11-07T09:13:27+01:00</time>
      </trkpt>
      <trkpt lat="44.77755" lon="5.15746">
        <ele>461</ele>
        <time>2015-11-07T09:13:32+01:00</time>
      </trkpt>
      <trkpt lat="44.77745" lon="5.15692">
        <ele>464</ele>
        <time>2015-11-07T09:13:37+01:00</time>
      </trkpt>
      <trkpt lat="44.77712" lon="5.15638">
        <ele>455</ele>
        <time>2015-11-07T09:13:42+01:00</time>
      </trkpt>
      <trkpt lat="44.7767" lon="5.15554">
        <ele>449</ele>
        <time>2015-11-07T09:13:47+01:00</time>
      </trkpt>
      <trkpt lat="44.77662" lon="5.15527">
        <ele>448</ele>
        <time>2015-11-07T09:13:52+01:00</time>
      </trkpt>
      <trkpt lat="44.77638" lon="5.15486">
        <ele>444</ele>
        <time>2015-11-07T09:13:57+01:00</time>
      </trkpt>
      <trkpt lat="44.776" lon="5.15426">
        <ele>444</ele>
        <time>2015-11-07T09:14:02+01:00</time>
      </trkpt>
      <trkpt lat="44.77586" lon="5.15407">
        <ele>445</ele>
        <time>2015-11-07T09:14:07+01:00</time>
      </trkpt>
      <trkpt lat="44.77582" lon="5.15375">
        <ele>443</ele>
        <time>2015-11-07T09:14:12+01:00</time>
      </trkpt>
      <trkpt lat="44.77606" lon="5.15357">
        <ele>441</ele>
        <time>2015-11-07T09:14:17+01:00</time>
      </trkpt>
      <trkpt lat="44.77621" lon="5.15305">
        <ele>435</ele>
        <time>2015-11-07T09:14:22+01:00</time>
      </trkpt>
      <trkpt lat="44.77631" lon="5.15235">
        <ele>425</ele>
        <time>2015-11-07T09:14:27+01:00</time>
      </trkpt>
      <trkpt lat="44.77628" lon="5.1518">
        <ele>416</ele>
        <time>2015-11-07T09:14:32+01:00</time>
      </trkpt>
      <trkpt lat="44.77656" lon="5.15136">
        <ele>410</ele>
        <time>2015-11-07T09:14:37+01:00</time>
      </trkpt>
      <trkpt lat="44.77662" lon="5.15104">
        <ele>404</ele>
        <time>2015-11-07T09:14:42+01:00</time>
      </trkpt>
      <trkpt lat="44.77653" lon="5.15014">
        <ele>390</ele>
        <time>2015-11-07T09:14:47+01:00</time>
      </trkpt>
      <trkpt lat="44.77656" lon="5.14951">
        <ele>385</ele>
        <time>2015-11-07T09:14:52+01:00</time>
      </trkpt>
      <trkpt lat="44.7764" lon="5.1488">
        <ele>377</ele>
        <time>2015-11-07T09:14:57+01:00</time>
      </trkpt>
      <trkpt lat="44.77654" lon="5.14696">
        <ele>355</ele>
        <time>2015-11-07T09:15:02+01:00</time>
      </trkpt>
      <trkpt lat="44.77682" lon="5.14638">
        <ele>348</ele>
        <time>2015-11-07T09:15:07+01:00</time>
      </trkpt>
      <trkpt lat="44.77722" lon="5.14612">
        <ele>346</ele>
        <time>2015-11-07T09:15:12+01:00</time>
      </trkpt>
      <trkpt lat="44.77727" lon="5.14604">
        <ele>345</ele>
        <time>2015-11-07T09:15:17+01:00</time>
      </trkpt>
      <trkpt lat="44.77667" lon="5.14584">
        <ele>337</ele>
        <time>2015-11-07T09:15:22+01:00</time>
      </trkpt>
      <trkpt lat="44.77637" lon="5.14576">
        <ele>335</ele>
        <time>2015-11-07T09:15:27+01:00</time>
      </trkpt>
      <trkpt lat="44.77643" lon="5.14542">
        <ele>333</ele>
        <time>2015-11-07T09:15:32+01:00</time>
      </trkpt>
      <trkpt lat="44.77668" lon="5.14466">
        <ele>338</ele>
        <time>2015-11-07T09:15:37+01:00</time>
      </trkpt>
      <trkpt lat="44.77674" lon="5.14441">
        <ele>343</ele>
        <time>2015-11-07T09:15:42+01:00</time>
      </trkpt>
      <trkpt lat="44.77677" lon="5.14419">
        <ele>347</ele>
        <time>2015-11-07T09:15:47+01:00</time>
      </trkpt>
      <trkpt lat="44.77706" lon="5.1437">
        <ele>357</ele>
        <time>2015-11-07T09:15:52+01:00</time>
      </trkpt>
      <trkpt lat="44.77679" lon="5.14389">
        <ele>355</ele>
        <time>2015-11-07T09:15:57+01:00</time>
      </trkpt>
      <trkpt lat="44.77651" lon="5.14396">
        <ele>353</ele>
        <time>2015-11-07T09:16:02+01:00</time>
      </trkpt>
      <trkpt lat="44.77649" lon="5.14373">
        <ele>358</ele>
        <time>2015-11-07T09:16:07+01:00</time>
      </trkpt>
      <trkpt lat="44.77648" lon="5.14354">
        <ele>363</ele>
        <time>2015-11-07T09:16:12+01:00</time>
      </trkpt>
      <trkpt lat="44.77679" lon="5.1433">
        <ele>369</ele>
        <time>2015-11-07T09:16:17+01:00</time>
      </trkpt>
      <trkpt lat="44.77694" lon="5.1434">
        <ele>366</ele>
        <time>2015-11-07T09:16:22+01:00</time>
      </trkpt>
      <trkpt lat="44.77738" lon="5.14322">
        <ele>367</ele>
        <time>2015-11-07T09:16:27+01:00</time>
      </trkpt>
      <trkpt lat="44.77767" lon="5.14304">
        <ele>369</ele>
        <time>2015-11-07T09:16:32+01:00</time>
      </trkpt>
      <trkpt lat="44.77771" lon="5.14265">
        <ele>372</ele>
        <time>2015-11-07T09:16:37+01:00</time>
      </trkpt>
      <trkpt lat="44.77801" lon="5.14257">
        <ele>374</ele>
        <time>2015-11-07T09:16:42+01:00</time>
      </trkpt>
      <trkpt lat="44.77838" lon="5.14278">
        <ele>373</ele>
        <time>2015-11-07T09:16:47+01:00</time>
      </trkpt>
      <trkpt lat="44.7787" lon="5.14285">
        <ele>373</ele>
        <time>2015-11-07T09:16:52+01:00</time>
      </trkpt>
      <trkpt lat="44.77906" lon="5.14282">
        <ele>374</ele>
        <time>2015-11-07T09:16:57+01:00</time>
      </trkpt>
      <trkpt lat="44.77908" lon="5.14282">
        <ele>374</ele>
        <time>2015-11-07T09:17:02+01:00</time>
      </trkpt>
      <trkpt lat="44.7791" lon="5.14284">
        <ele>374</ele>
        <time>2015-11-07T09:17:07+01:00</time>
      </trkpt>
      <trkpt lat="44.77911" lon="5.14282">
        <ele>374</ele>
        <time>2015-11-07T09:17:12+01:00</time>
      </trkpt>
    </trkseg>
  </trk>
</gpx>